Pagina principale
METAR-TAF:

METAR-TAF

Aeroporti :

Aeroporto di Francistown

Francistown, Botswana

latitudine: 21-13S, longitudine: 027-30E, altezza: 1001 m

Osservazione

Il bollettino è stato emesso 18 minuti fa, alle 06:00 UTC
Vento 7 kt da nord/nord-est, variando fra nord e est/nord-est
Temperature 23°C
Umidità 73%
Pressione 1019 hPa
Visibilità 10 km o più
nessuna nube inferiore a 1500 m e nessun cumulonembo

METAR: FBFT 290600Z 03007KT 350V060 CAVOK 23/18 Q1019

Ora: 08:18 (06:18 UTC)

Previsione

Il bollettino è stato emesso 3 ore e 18 minuti fa, alle 03:00 UTC
Previsione valida dal 29 alle 06 UTC al 29 alle 15 UTC
Vento 10 kt da est
Visibilità 10 km o più
nessuna nube inferiore a 1500 m e nessun cumulonembo

TAF: FBFT 290300Z 2906/2915 09010KT CAVOK

Osservazioni e previsioni meteorologiche di più di 4000 aeroporti (messaggi METAR e TAF).

Le stazioni disponibili sono rappresentate dai dischi gialli e rossi sulla carta.

Puntare il mouse per vedere il nome della stazione.

Clicca sopra per visualizzare le osservazioni e previsioni meteorologiche.

Per cambiare la mappa : fare clic sui pulsanti verdi con una croce nera per ingrandire, il pulsante verde con un trattino per diminuire, o sulla freccia verde per le mappe adiacenti.


METAR-TAF: